sensor_id;sensor_type;location;lat;lon;timestamp;temperature;humidity
28159;DHT22;15447;50.828;4.406;2023-11-22T06:32:41;6.70;99.90
28159;DHT22;15447;50.828;4.406;2023-11-22T06:35:10;6.70;99.90
28159;DHT22;15447;50.828;4.406;2023-11-22T06:37:40;6.80;99.90
28159;DHT22;15447;50.828;4.406;2023-11-22T06:40:06;6.80;99.90
28159;DHT22;15447;50.828;4.406;2023-11-22T06:42:35;6.80;99.90
28159;DHT22;15447;50.828;4.406;2023-11-22T06:45:05;6.80;99.90
28159;DHT22;15447;50.828;4.406;2023-11-22T06:47:32;6.70;99.90
28159;DHT22;15447;50.828;4.406;2023-11-22T06:49:58;6.60;99.90
28159;DHT22;15447;50.828;4.406;2023-11-22T06:52:23;6.60;99.90
28159;DHT22;15447;50.828;4.406;2023-11-22T06:54:49;6.70;99.90
28159;DHT22;15447;50.828;4.406;2023-11-22T06:57:20;6.80;99.90
28159;DHT22;15447;50.828;4.406;2023-11-22T06:59:55;6.80;99.90
28159;DHT22;15447;50.828;4.406;2023-11-22T07:02:27;6.80;99.90
28159;DHT22;15447;50.828;4.406;2023-11-22T07:04:52;6.80;99.90
28159;DHT22;15447;50.828;4.406;2023-11-22T07:07:21;6.80;99.90
28159;DHT22;15447;50.828;4.406;2023-11-22T07:09:47;6.80;99.90
28159;DHT22;15447;50.828;4.406;2023-11-22T07:12:14;6.80;99.90
28159;DHT22;15447;50.828;4.406;2023-11-22T07:14:39;6.80;99.90
28159;DHT22;15447;50.828;4.406;2023-11-22T07:17:05;6.90;99.90
28159;DHT22;15447;50.828;4.406;2023-11-22T07:19:32;6.90;99.90
28159;DHT22;15447;50.828;4.406;2023-11-22T07:22:03;6.90;99.90
28159;DHT22;15447;50.828;4.406;2023-11-22T07:24:49;7.00;99.90
28159;DHT22;15447;50.828;4.406;2023-11-22T07:27:22;6.80;99.90
28159;DHT22;15447;50.828;4.406;2023-11-22T07:29:50;6.70;99.90
28159;DHT22;15447;50.828;4.406;2023-11-22T07:32:30;6.70;99.90
28159;DHT22;15447;50.828;4.406;2023-11-22T07:35:01;6.70;99.90
28159;DHT22;15447;50.828;4.406;2023-11-22T07:37:28;6.80;99.90
28159;DHT22;15447;50.828;4.406;2023-11-22T07:39:57;6.90;99.90
28159;DHT22;15447;50.828;4.406;2023-11-22T07:42:26;6.90;99.90
28159;DHT22;15447;50.828;4.406;2023-11-22T07:44:54;7.00;99.90
28159;DHT22;15447;50.828;4.406;2023-11-22T07:47:22;7.00;99.90
28159;DHT22;15447;50.828;4.406;2023-11-22T07:49:48;7.10;99.90
28159;DHT22;15447;50.828;4.406;2023-11-22T07:56:01;7.10;99.90
28159;DHT22;15447;50.828;4.406;2023-11-22T07:58:34;7.20;99.90
28159;DHT22;15447;50.828;4.406;2023-11-22T08:01:02;7.30;99.90
28159;DHT22;15447;50.828;4.406;2023-11-22T08:03:33;7.10;99.90
28159;DHT22;15447;50.828;4.406;2023-11-22T08:06:10;7.00;99.90
28159;DHT22;15447;50.828;4.406;2023-11-22T08:08:48;7.00;99.90
28159;DHT22;15447;50.828;4.406;2023-11-22T08:11:17;7.10;99.90
28159;DHT22;15447;50.828;4.406;2023-11-22T08:13:49;7.20;99.90
28159;DHT22;15447;50.828;4.406;2023-11-22T08:16:15;7.30;99.90
28159;DHT22;15447;50.828;4.406;2023-11-22T08:18:47;7.40;99.90
28159;DHT22;15447;50.828;4.406;2023-11-22T08:21:16;7.40;99.90
28159;DHT22;15447;50.828;4.406;2023-11-22T08:23:46;7.40;99.90
28159;DHT22;15447;50.828;4.406;2023-11-22T08:26:16;7.40;99.90
28159;DHT22;15447;50.828;4.406;2023-11-22T08:28:53;7.40;99.90
28159;DHT22;15447;50.828;4.406;2023-11-22T08:31:21;7.40;99.90
28159;DHT22;15447;50.828;4.406;2023-11-22T08:33:46;7.50;99.90
28159;DHT22;15447;50.828;4.406;2023-11-22T08:36:15;7.60;99.90
28159;DHT22;15447;50.828;4.406;2023-11-22T08:38:46;7.70;99.90
28159;DHT22;15447;50.828;4.406;2023-11-22T08:41:12;7.70;99.90
28159;DHT22;15447;50.828;4.406;2023-11-22T08:43:52;7.70;99.90
28159;DHT22;15447;50.828;4.406;2023-11-22T08:46:26;7.70;99.90
28159;DHT22;15447;50.828;4.406;2023-11-22T08:51:31;7.50;99.90
28159;DHT22;15447;50.828;4.406;2023-11-22T08:53:59;7.60;99.90
28159;DHT22;15447;50.828;4.406;2023-11-22T08:56:32;7.70;99.90
28159;DHT22;15447;50.828;4.406;2023-11-22T08:59:12;7.70;99.90
28159;DHT22;15447;50.828;4.406;2023-11-22T09:01:42;7.80;99.90
28159;DHT22;15447;50.828;4.406;2023-11-22T09:04:22;7.90;99.90
28159;DHT22;15447;50.828;4.406;2023-11-22T09:06:52;7.90;99.90
28159;DHT22;15447;50.828;4.406;2023-11-22T09:09:27;7.80;99.90
28159;DHT22;15447;50.828;4.406;2023-11-22T09:12:01;7.80;99.90
28159;DHT22;15447;50.828;4.406;2023-11-22T09:14:45;7.90;99.90
28159;DHT22;15447;50.828;4.406;2023-11-22T09:17:22;8.20;99.90
28159;DHT22;15447;50.828;4.406;2023-11-22T09:20:07;8.30;99.90
28159;DHT22;15447;50.828;4.406;2023-11-22T09:22:49;8.40;99.90
28159;DHT22;15447;50.828;4.406;2023-11-22T09:25:25;8.50;99.90
28159;DHT22;15447;50.828;4.406;2023-11-22T09:28:06;8.40;99.90
28159;DHT22;15447;50.828;4.406;2023-11-22T09:30:52;8.40;99.90
28159;DHT22;15447;50.828;4.406;2023-11-22T09:33:29;8.60;99.90
28159;DHT22;15447;50.828;4.406;2023-11-22T09:35:55;8.80;99.90
28159;DHT22;15447;50.828;4.406;2023-11-22T09:38:27;9.00;99.90
28159;DHT22;15447;50.828;4.406;2023-11-22T09:41:04;9.30;99.90
28159;DHT22;15447;50.828;4.406;2023-11-22T09:43:39;9.60;99.90
28159;DHT22;15447;50.828;4.406;2023-11-22T09:46:20;10.00;99.90
28159;DHT22;15447;50.828;4.406;2023-11-22T09:48:53;10.40;99.90
28159;DHT22;15447;50.828;4.406;2023-11-22T09:51:39;10.50;99.90
28159;DHT22;15447;50.828;4.406;2023-11-22T09:54:16;10.70;99.90
28159;DHT22;15447;50.828;4.406;2023-11-22T09:57:10;11.00;99.90
28159;DHT22;15447;50.828;4.406;2023-11-22T09:59:41;10.50;99.90
28159;DHT22;15447;50.828;4.406;2023-11-22T10:02:15;9.50;99.90
28159;DHT22;15447;50.828;4.406;2023-11-22T10:05:01;9.40;99.90
28159;DHT22;15447;50.828;4.406;2023-11-22T10:07:37;9.30;99.90
28159;DHT22;15447;50.828;4.406;2023-11-22T10:10:04;8.80;99.90
28159;DHT22;15447;50.828;4.406;2023-11-22T10:12:33;9.10;99.90
28159;DHT22;15447;50.828;4.406;2023-11-22T10:15:23;9.40;99.90
28159;DHT22;15447;50.828;4.406;2023-11-22T10:17:58;9.30;99.90
28159;DHT22;15447;50.828;4.406;2023-11-22T10:20:46;9.30;99.90
28159;DHT22;15447;50.828;4.406;2023-11-22T10:23:37;9.40;99.90
28159;DHT22;15447;50.828;4.406;2023-11-22T10:26:11;9.40;99.90
28159;DHT22;15447;50.828;4.406;2023-11-22T10:28:48;9.60;99.90
28159;DHT22;15447;50.828;4.406;2023-11-22T10:31:22;9.60;99.90
28159;DHT22;15447;50.828;4.406;2023-11-22T10:34:05;9.40;99.90
28159;DHT22;15447;50.828;4.406;2023-11-22T10:36:46;9.40;99.90
28159;DHT22;15447;50.828;4.406;2023-11-22T10:39:23;9.60;99.90
28159;DHT22;15447;50.828;4.406;2023-11-22T10:41:57;9.30;99.90
28159;DHT22;15447;50.828;4.406;2023-11-22T10:44:35;8.90;99.90
28159;DHT22;15447;50.828;4.406;2023-11-22T10:47:15;8.80;99.90
28159;DHT22;15447;50.828;4.406;2023-11-22T10:49:49;8.70;99.90
28159;DHT22;15447;50.828;4.406;2023-11-22T10:52:29;9.10;99.90
28159;DHT22;15447;50.828;4.406;2023-11-22T10:55:25;9.50;99.90
28159;DHT22;15447;50.828;4.406;2023-11-22T10:58:00;10.10;99.90
28159;DHT22;15447;50.828;4.406;2023-11-22T11:00:41;9.90;99.90
28159;DHT22;15447;50.828;4.406;2023-11-22T11:03:28;9.70;99.90
28159;DHT22;15447;50.828;4.406;2023-11-22T11:06:18;9.40;99.90
28159;DHT22;15447;50.828;4.406;2023-11-22T11:12:05;9.50;99.90
28159;DHT22;15447;50.828;4.406;2023-11-22T11:14:56;9.70;99.90
28159;DHT22;15447;50.828;4.406;2023-11-22T11:17:51;9.80;99.90
28159;DHT22;15447;50.828;4.406;2023-11-22T11:20:47;9.90;99.90
28159;DHT22;15447;50.828;4.406;2023-11-22T11:23:24;10.20;99.90
28159;DHT22;15447;50.828;4.406;2023-11-22T11:25:57;10.60;99.90
28159;DHT22;15447;50.828;4.406;2023-11-22T11:28:43;11.40;99.90
28159;DHT22;15447;50.828;4.406;2023-11-22T11:31:21;12.30;99.90
28159;DHT22;15447;50.828;4.406;2023-11-22T11:36:29;13.50;99.90
28159;DHT22;15447;50.828;4.406;2023-11-22T11:39:01;14.20;99.90
28159;DHT22;15447;50.828;4.406;2023-11-22T11:41:38;14.70;99.90
28159;DHT22;15447;50.828;4.406;2023-11-22T11:44:10;14.60;99.90
28159;DHT22;15447;50.828;4.406;2023-11-22T11:46:39;14.60;99.90
28159;DHT22;15447;50.828;4.406;2023-11-22T11:52:16;14.30;99.90
28159;DHT22;15447;50.828;4.406;2023-11-22T11:54:47;14.90;99.90
28159;DHT22;15447;50.828;4.406;2023-11-22T11:57:24;15.60;99.90
28159;DHT22;15447;50.828;4.406;2023-11-22T11:59:53;16.50;99.90
28159;DHT22;15447;50.828;4.406;2023-11-22T12:02:21;17.50;99.90
28159;DHT22;15447;50.828;4.406;2023-11-22T12:04:47;18.00;99.90
28159;DHT22;15447;50.828;4.406;2023-11-22T12:07:13;18.50;99.90
28159;DHT22;15447;50.828;4.406;2023-11-22T12:09:39;19.00;99.90
28159;DHT22;15447;50.828;4.406;2023-11-22T12:12:05;19.00;99.90
28159;DHT22;15447;50.828;4.406;2023-11-22T12:14:33;18.20;99.90
28159;DHT22;15447;50.828;4.406;2023-11-22T12:16:59;17.60;99.90
28159;DHT22;15447;50.828;4.406;2023-11-22T12:19:28;16.60;99.90
28159;DHT22;15447;50.828;4.406;2023-11-22T12:21:56;15.70;99.90
28159;DHT22;15447;50.828;4.406;2023-11-22T12:24:30;15.50;99.90
28159;DHT22;15447;50.828;4.406;2023-11-22T12:26:56;15.20;99.90
28159;DHT22;15447;50.828;4.406;2023-11-22T12:29:27;14.70;99.90
28159;DHT22;15447;50.828;4.406;2023-11-22T12:31:53;14.10;99.90
28159;DHT22;15447;50.828;4.406;2023-11-22T12:34:22;13.60;99.90
28159;DHT22;15447;50.828;4.406;2023-11-22T12:36:48;13.00;99.90
28159;DHT22;15447;50.828;4.406;2023-11-22T12:39:23;12.60;99.90
28159;DHT22;15447;50.828;4.406;2023-11-22T12:42:00;12.50;99.90
28159;DHT22;15447;50.828;4.406;2023-11-22T12:44:25;12.40;99.90
28159;DHT22;15447;50.828;4.406;2023-11-22T12:46:52;12.50;99.90
28159;DHT22;15447;50.828;4.406;2023-11-22T12:49:28;12.20;99.90
28159;DHT22;15447;50.828;4.406;2023-11-22T12:51:56;12.10;99.90
28159;DHT22;15447;50.828;4.406;2023-11-22T12:54:26;12.10;99.90
28159;DHT22;15447;50.828;4.406;2023-11-22T12:56:53;12.20;99.90
28159;DHT22;15447;50.828;4.406;2023-11-22T12:59:25;12.30;99.90
28159;DHT22;15447;50.828;4.406;2023-11-22T13:01:53;12.50;99.90
28159;DHT22;15447;50.828;4.406;2023-11-22T13:04:20;12.70;99.90
28159;DHT22;15447;50.828;4.406;2023-11-22T13:06:45;13.00;99.90
28159;DHT22;15447;50.828;4.406;2023-11-22T13:09:11;12.40;99.90
28159;DHT22;15447;50.828;4.406;2023-11-22T13:11:40;12.10;99.90
28159;DHT22;15447;50.828;4.406;2023-11-22T13:14:09;12.10;99.90
28159;DHT22;15447;50.828;4.406;2023-11-22T13:16:35;12.10;99.90
28159;DHT22;15447;50.828;4.406;2023-11-22T13:19:02;12.20;99.90
28159;DHT22;15447;50.828;4.406;2023-11-22T13:21:29;12.30;99.90
28159;DHT22;15447;50.828;4.406;2023-11-22T13:23:59;12.40;99.90
28159;DHT22;15447;50.828;4.406;2023-11-22T13:26:26;12.70;99.90
28159;DHT22;15447;50.828;4.406;2023-11-22T13:28:54;12.90;99.90
28159;DHT22;15447;50.828;4.406;2023-11-22T13:31:23;13.10;99.90
28159;DHT22;15447;50.828;4.406;2023-11-22T13:33:51;13.40;99.90
28159;DHT22;15447;50.828;4.406;2023-11-22T13:36:17;13.40;99.90
28159;DHT22;15447;50.828;4.406;2023-11-22T13:38:49;13.50;99.90
28159;DHT22;15447;50.828;4.406;2023-11-22T13:41:19;13.80;99.90
28159;DHT22;15447;50.828;4.406;2023-11-22T13:43:47;14.00;99.90
28159;DHT22;15447;50.828;4.406;2023-11-22T13:46:22;14.00;99.90
28159;DHT22;15447;50.828;4.406;2023-11-22T13:48:59;13.70;99.90
28159;DHT22;15447;50.828;4.406;2023-11-22T13:51:28;13.70;99.90
28159;DHT22;15447;50.828;4.406;2023-11-22T13:53:57;13.90;99.90
28159;DHT22;15447;50.828;4.406;2023-11-22T13:56:26;13.90;99.90
28159;DHT22;15447;50.828;4.406;2023-11-22T13:58:52;13.60;99.90
28159;DHT22;15447;50.828;4.406;2023-11-22T14:01:17;13.10;99.90
28159;DHT22;15447;50.828;4.406;2023-11-22T14:03:55;12.70;99.90
28159;DHT22;15447;50.828;4.406;2023-11-22T14:06:31;12.50;99.90
28159;DHT22;15447;50.828;4.406;2023-11-22T14:09:06;12.00;99.90
28159;DHT22;15447;50.828;4.406;2023-11-22T14:11:43;11.70;99.90
28159;DHT22;15447;50.828;4.406;2023-11-22T14:14:20;11.60;99.90
28159;DHT22;15447;50.828;4.406;2023-11-22T14:16:46;11.30;99.90
28159;DHT22;15447;50.828;4.406;2023-11-22T14:19:15;11.30;99.90
28159;DHT22;15447;50.828;4.406;2023-11-22T14:21:41;11.30;99.90
28159;DHT22;15447;50.828;4.406;2023-11-22T14:24:06;11.40;99.90
28159;DHT22;15447;50.828;4.406;2023-11-22T14:26:35;11.80;99.90
28159;DHT22;15447;50.828;4.406;2023-11-22T14:29:01;12.20;99.90
28159;DHT22;15447;50.828;4.406;2023-11-22T14:31:26;12.30;99.90
28159;DHT22;15447;50.828;4.406;2023-11-22T14:33:54;12.30;99.90
28159;DHT22;15447;50.828;4.406;2023-11-22T14:36:23;11.90;99.90
28159;DHT22;15447;50.828;4.406;2023-11-22T14:38:48;11.60;99.90
28159;DHT22;15447;50.828;4.406;2023-11-22T14:41:20;11.50;99.90
28159;DHT22;15447;50.828;4.406;2023-11-22T14:43:46;11.30;99.90
28159;DHT22;15447;50.828;4.406;2023-11-22T14:46:17;11.20;99.90
28159;DHT22;15447;50.828;4.406;2023-11-22T14:48:43;11.10;99.90
28159;DHT22;15447;50.828;4.406;2023-11-22T14:51:19;10.90;99.90
28159;DHT22;15447;50.828;4.406;2023-11-22T14:53:45;10.60;99.90
28159;DHT22;15447;50.828;4.406;2023-11-22T14:56:25;10.50;99.90
28159;DHT22;15447;50.828;4.406;2023-11-22T14:58:51;10.50;99.90
28159;DHT22;15447;50.828;4.406;2023-11-22T15:01:23;10.50;99.90
28159;DHT22;15447;50.828;4.406;2023-11-22T15:03:52;10.50;99.90
28159;DHT22;15447;50.828;4.406;2023-11-22T15:06:20;10.40;99.90
28159;DHT22;15447;50.828;4.406;2023-11-22T15:08:46;10.40;99.90
28159;DHT22;15447;50.828;4.406;2023-11-22T15:11:13;10.30;99.90
28159;DHT22;15447;50.828;4.406;2023-11-22T15:13:41;10.10;99.90
28159;DHT22;15447;50.828;4.406;2023-11-22T15:16:07;10.10;99.90
28159;DHT22;15447;50.828;4.406;2023-11-22T15:18:32;10.00;99.90
28159;DHT22;15447;50.828;4.406;2023-11-22T15:20:58;9.90;99.90
28159;DHT22;15447;50.828;4.406;2023-11-22T15:23:24;9.90;99.90
28159;DHT22;15447;50.828;4.406;2023-11-22T15:25:49;9.70;99.90
28159;DHT22;15447;50.828;4.406;2023-11-22T15:28:16;9.60;99.90
28159;DHT22;15447;50.828;4.406;2023-11-22T15:30:48;9.60;99.90
28159;DHT22;15447;50.828;4.406;2023-11-22T15:33:25;9.50;99.90
28159;DHT22;15447;50.828;4.406;2023-11-22T15:35:51;9.50;99.90
28159;DHT22;15447;50.828;4.406;2023-11-22T15:38:16;9.40;99.90
28159;DHT22;15447;50.828;4.406;2023-11-22T15:40:42;9.40;99.90
28159;DHT22;15447;50.828;4.406;2023-11-22T15:43:08;9.50;99.90
28159;DHT22;15447;50.828;4.406;2023-11-22T15:45:34;9.50;99.90
28159;DHT22;15447;50.828;4.406;2023-11-22T15:48:01;9.50;99.90
28159;DHT22;15447;50.828;4.406;2023-11-22T15:50:26;9.50;99.90
28159;DHT22;15447;50.828;4.406;2023-11-22T15:52:53;9.40;99.90
28159;DHT22;15447;50.828;4.406;2023-11-22T15:55:18;9.40;99.90
28159;DHT22;15447;50.828;4.406;2023-11-22T15:57:44;9.40;99.90
28159;DHT22;15447;50.828;4.406;2023-11-22T16:00:10;9.40;99.90
28159;DHT22;15447;50.828;4.406;2023-11-22T16:02:36;9.40;99.90
28159;DHT22;15447;50.828;4.406;2023-11-22T16:05:05;9.40;99.90
28159;DHT22;15447;50.828;4.406;2023-11-22T16:07:32;9.40;99.90
28159;DHT22;15447;50.828;4.406;2023-11-22T16:09:57;9.30;99.90
28159;DHT22;15447;50.828;4.406;2023-11-22T16:12:23;9.30;99.90
28159;DHT22;15447;50.828;4.406;2023-11-22T16:14:49;9.30;99.90
28159;DHT22;15447;50.828;4.406;2023-11-22T16:17:15;9.30;99.90
28159;DHT22;15447;50.828;4.406;2023-11-22T16:19:41;9.40;99.90
28159;DHT22;15447;50.828;4.406;2023-11-22T16:22:07;9.40;99.90
28159;DHT22;15447;50.828;4.406;2023-11-22T16:24:34;9.40;99.90
28159;DHT22;15447;50.828;4.406;2023-11-22T16:27:01;9.30;99.90
28159;DHT22;15447;50.828;4.406;2023-11-22T16:29:27;9.20;99.90
28159;DHT22;15447;50.828;4.406;2023-11-22T16:31:53;9.00;99.90
28159;DHT22;15447;50.828;4.406;2023-11-22T16:34:18;8.90;99.90
28159;DHT22;15447;50.828;4.406;2023-11-22T16:36:44;8.80;99.90
28159;DHT22;15447;50.828;4.406;2023-11-22T16:39:10;8.80;99.90
28159;DHT22;15447;50.828;4.406;2023-11-22T16:41:35;8.70;99.90
28159;DHT22;15447;50.828;4.406;2023-11-22T16:44:01;8.60;99.90
28159;DHT22;15447;50.828;4.406;2023-11-22T16:46:27;8.60;99.90
28159;DHT22;15447;50.828;4.406;2023-11-22T16:48:58;8.70;99.90
28159;DHT22;15447;50.828;4.406;2023-11-22T16:51:24;8.70;99.90
28159;DHT22;15447;50.828;4.406;2023-11-22T16:53:51;8.80;99.90
28159;DHT22;15447;50.828;4.406;2023-11-22T16:56:17;8.80;99.90
28159;DHT22;15447;50.828;4.406;2023-11-22T16:58:45;8.80;99.90
28159;DHT22;15447;50.828;4.406;2023-11-22T17:01:11;8.70;99.90
28159;DHT22;15447;50.828;4.406;2023-11-22T17:03:37;8.60;99.90
28159;DHT22;15447;50.828;4.406;2023-11-22T17:06:02;8.50;99.90
28159;DHT22;15447;50.828;4.406;2023-11-22T17:08:32;8.50;99.90
28159;DHT22;15447;50.828;4.406;2023-11-22T17:10:58;8.50;99.90
28159;DHT22;15447;50.828;4.406;2023-11-22T17:13:24;8.50;99.90
28159;DHT22;15447;50.828;4.406;2023-11-22T17:15:50;8.50;99.90
28159;DHT22;15447;50.828;4.406;2023-11-22T17:18:16;8.60;99.90
28159;DHT22;15447;50.828;4.406;2023-11-22T17:20:45;8.50;99.90
28159;DHT22;15447;50.828;4.406;2023-11-22T17:23:14;8.40;99.90
28159;DHT22;15447;50.828;4.406;2023-11-22T17:25:42;8.40;99.90
28159;DHT22;15447;50.828;4.406;2023-11-22T17:28:08;8.40;99.90
28159;DHT22;15447;50.828;4.406;2023-11-22T17:30:34;8.30;99.90
28159;DHT22;15447;50.828;4.406;2023-11-22T17:33:00;8.20;99.90
28159;DHT22;15447;50.828;4.406;2023-11-22T17:35:26;8.20;99.90
28159;DHT22;15447;50.828;4.406;2023-11-22T17:40:58;8.30;99.90
28159;DHT22;15447;50.828;4.406;2023-11-22T17:43:25;8.30;99.90
28159;DHT22;15447;50.828;4.406;2023-11-22T17:45:53;8.30;99.90
28159;DHT22;15447;50.828;4.406;2023-11-22T17:51:09;8.10;99.90
28159;DHT22;15447;50.828;4.406;2023-11-22T17:53:35;8.20;99.90
28159;DHT22;15447;50.828;4.406;2023-11-22T17:56:06;8.20;99.90
28159;DHT22;15447;50.828;4.406;2023-11-22T17:58:33;8.20;99.90
28159;DHT22;15447;50.828;4.406;2023-11-22T18:01:00;8.10;99.90
28159;DHT22;15447;50.828;4.406;2023-11-22T18:03:25;8.10;99.90
28159;DHT22;15447;50.828;4.406;2023-11-22T18:06:13;8.10;99.90
28159;DHT22;15447;50.828;4.406;2023-11-22T18:08:48;8.10;99.90
28159;DHT22;15447;50.828;4.406;2023-11-22T18:11:14;8.10;99.90
28159;DHT22;15447;50.828;4.406;2023-11-22T18:13:42;8.10;99.90
28159;DHT22;15447;50.828;4.406;2023-11-22T18:16:07;8.10;99.90
28159;DHT22;15447;50.828;4.406;2023-11-22T18:18:38;8.00;99.90
28159;DHT22;15447;50.828;4.406;2023-11-22T18:21:04;8.00;99.90
28159;DHT22;15447;50.828;4.406;2023-11-22T18:23:30;8.10;99.90
28159;DHT22;15447;50.828;4.406;2023-11-22T18:25:56;8.10;99.90
28159;DHT22;15447;50.828;4.406;2023-11-22T18:28:22;8.00;99.90
28159;DHT22;15447;50.828;4.406;2023-11-22T18:30:48;8.00;99.90
28159;DHT22;15447;50.828;4.406;2023-11-22T18:33:19;7.90;99.90
28159;DHT22;15447;50.828;4.406;2023-11-22T18:35:46;7.90;99.90
28159;DHT22;15447;50.828;4.406;2023-11-22T18:38:12;7.90;99.90
28159;DHT22;15447;50.828;4.406;2023-11-22T18:40:38;7.90;99.90
28159;DHT22;15447;50.828;4.406;2023-11-22T18:43:05;7.90;99.90
28159;DHT22;15447;50.828;4.406;2023-11-22T18:45:31;7.90;99.90
28159;DHT22;15447;50.828;4.406;2023-11-22T18:47:58;7.90;99.90
28159;DHT22;15447;50.828;4.406;2023-11-22T18:50:24;7.90;99.90
28159;DHT22;15447;50.828;4.406;2023-11-22T18:52:52;8.00;99.90
28159;DHT22;15447;50.828;4.406;2023-11-22T18:55:20;8.00;99.90
28159;DHT22;15447;50.828;4.406;2023-11-22T18:58:03;8.00;99.90
28159;DHT22;15447;50.828;4.406;2023-11-22T19:00:33;7.90;99.90
28159;DHT22;15447;50.828;4.406;2023-11-22T19:03:01;7.90;99.90
28159;DHT22;15447;50.828;4.406;2023-11-22T19:05:32;7.80;99.90
28159;DHT22;15447;50.828;4.406;2023-11-22T19:08:03;7.80;99.90
28159;DHT22;15447;50.828;4.406;2023-11-22T19:10:50;7.80;99.90
28159;DHT22;15447;50.828;4.406;2023-11-22T19:13:18;7.80;99.90
28159;DHT22;15447;50.828;4.406;2023-11-22T19:15:47;7.70;99.90
28159;DHT22;15447;50.828;4.406;2023-11-22T19:18:16;7.70;99.90
28159;DHT22;15447;50.828;4.406;2023-11-22T19:20:46;7.70;99.90
28159;DHT22;15447;50.828;4.406;2023-11-22T19:23:14;7.70;99.90
28159;DHT22;15447;50.828;4.406;2023-11-22T19:25:40;7.70;99.90
28159;DHT22;15447;50.828;4.406;2023-11-22T19:28:11;7.70;99.90
28159;DHT22;15447;50.828;4.406;2023-11-22T19:30:37;7.70;99.90
28159;DHT22;15447;50.828;4.406;2023-11-22T19:33:04;7.70;99.90
28159;DHT22;15447;50.828;4.406;2023-11-22T19:35:30;7.70;99.90
28159;DHT22;15447;50.828;4.406;2023-11-22T19:38:02;7.70;99.90
28159;DHT22;15447;50.828;4.406;2023-11-22T19:40:33;7.70;99.90
28159;DHT22;15447;50.828;4.406;2023-11-22T19:43:01;7.60;99.90
28159;DHT22;15447;50.828;4.406;2023-11-22T19:45:31;7.70;99.90
28159;DHT22;15447;50.828;4.406;2023-11-22T19:47:57;7.60;99.90
28159;DHT22;15447;50.828;4.406;2023-11-22T19:50:23;7.60;99.90
28159;DHT22;15447;50.828;4.406;2023-11-22T19:52:49;7.60;99.90
28159;DHT22;15447;50.828;4.406;2023-11-22T19:55:15;7.70;99.90
28159;DHT22;15447;50.828;4.406;2023-11-22T19:57:41;7.70;99.90
28159;DHT22;15447;50.828;4.406;2023-11-22T20:00:10;7.70;99.90
28159;DHT22;15447;50.828;4.406;2023-11-22T20:02:41;7.60;99.90
28159;DHT22;15447;50.828;4.406;2023-11-22T20:05:09;7.60;99.90
28159;DHT22;15447;50.828;4.406;2023-11-22T20:07:37;7.60;99.90
28159;DHT22;15447;50.828;4.406;2023-11-22T20:10:24;7.60;99.90
28159;DHT22;15447;50.828;4.406;2023-11-22T20:12:51;7.60;99.90
28159;DHT22;15447;50.828;4.406;2023-11-22T20:15:17;7.70;99.90
28159;DHT22;15447;50.828;4.406;2023-11-22T20:17:43;7.70;99.90
28159;DHT22;15447;50.828;4.406;2023-11-22T20:20:09;7.70;99.90
28159;DHT22;15447;50.828;4.406;2023-11-22T20:22:35;7.70;99.90
28159;DHT22;15447;50.828;4.406;2023-11-22T20:25:00;7.70;99.90
28159;DHT22;15447;50.828;4.406;2023-11-22T20:27:28;7.80;99.90
28159;DHT22;15447;50.828;4.406;2023-11-22T20:30:03;7.90;99.90
28159;DHT22;15447;50.828;4.406;2023-11-22T20:32:29;8.00;99.90
28159;DHT22;15447;50.828;4.406;2023-11-22T20:34:55;8.10;99.90
28159;DHT22;15447;50.828;4.406;2023-11-22T20:37:20;8.10;99.90
28159;DHT22;15447;50.828;4.406;2023-11-22T20:39:47;8.10;99.90
28159;DHT22;15447;50.828;4.406;2023-11-22T20:42:12;8.00;99.90
28159;DHT22;15447;50.828;4.406;2023-11-22T20:44:38;8.00;99.90
28159;DHT22;15447;50.828;4.406;2023-11-22T20:47:04;7.90;99.90
28159;DHT22;15447;50.828;4.406;2023-11-22T20:49:30;7.90;99.90
28159;DHT22;15447;50.828;4.406;2023-11-22T20:51:57;8.00;99.90
28159;DHT22;15447;50.828;4.406;2023-11-22T20:54:23;8.00;99.90
28159;DHT22;15447;50.828;4.406;2023-11-22T20:56:49;8.00;99.90
28159;DHT22;15447;50.828;4.406;2023-11-22T20:59:18;8.00;99.90
28159;DHT22;15447;50.828;4.406;2023-11-22T21:01:49;8.00;99.90
28159;DHT22;15447;50.828;4.406;2023-11-22T21:04:14;8.00;99.90
28159;DHT22;15447;50.828;4.406;2023-11-22T21:06:41;8.00;99.90
28159;DHT22;15447;50.828;4.406;2023-11-22T21:09:07;8.00;99.90
28159;DHT22;15447;50.828;4.406;2023-11-22T21:11:39;8.00;99.90
28159;DHT22;15447;50.828;4.406;2023-11-22T21:14:07;8.00;99.90
28159;DHT22;15447;50.828;4.406;2023-11-22T21:16:32;8.10;99.90
28159;DHT22;15447;50.828;4.406;2023-11-22T21:19:00;8.10;99.90
28159;DHT22;15447;50.828;4.406;2023-11-22T21:21:29;8.20;99.90
28159;DHT22;15447;50.828;4.406;2023-11-22T21:23:57;8.20;99.90
28159;DHT22;15447;50.828;4.406;2023-11-22T21:26:24;8.20;99.90
28159;DHT22;15447;50.828;4.406;2023-11-22T21:28:50;8.20;99.90
28159;DHT22;15447;50.828;4.406;2023-11-22T21:31:15;8.30;99.90
28159;DHT22;15447;50.828;4.406;2023-11-22T21:33:47;8.30;99.90
28159;DHT22;15447;50.828;4.406;2023-11-22T21:36:16;8.20;99.90
28159;DHT22;15447;50.828;4.406;2023-11-22T21:38:44;8.30;99.90
28159;DHT22;15447;50.828;4.406;2023-11-22T21:41:10;8.30;99.90
28159;DHT22;15447;50.828;4.406;2023-11-22T21:43:48;8.40;99.90
28159;DHT22;15447;50.828;4.406;2023-11-22T21:46:17;8.40;99.90
28159;DHT22;15447;50.828;4.406;2023-11-22T21:48:45;8.40;99.90
28159;DHT22;15447;50.828;4.406;2023-11-22T21:51:14;8.40;99.90
28159;DHT22;15447;50.828;4.406;2023-11-22T21:53:40;8.40;99.90
28159;DHT22;15447;50.828;4.406;2023-11-22T21:56:09;8.40;99.90
28159;DHT22;15447;50.828;4.406;2023-11-22T21:58:34;8.50;99.90
28159;DHT22;15447;50.828;4.406;2023-11-22T22:01:02;8.50;99.90
28159;DHT22;15447;50.828;4.406;2023-11-22T22:03:32;8.50;99.90
28159;DHT22;15447;50.828;4.406;2023-11-22T22:06:01;8.50;99.90
28159;DHT22;15447;50.828;4.406;2023-11-22T22:08:29;8.60;99.90
28159;DHT22;15447;50.828;4.406;2023-11-22T22:10:55;8.50;99.90
28159;DHT22;15447;50.828;4.406;2023-11-22T22:13:20;8.50;99.90
28159;DHT22;15447;50.828;4.406;2023-11-22T22:15:46;8.60;99.90
28159;DHT22;15447;50.828;4.406;2023-11-22T22:18:12;8.60;99.90
28159;DHT22;15447;50.828;4.406;2023-11-22T22:20:37;8.60;99.90
28159;DHT22;15447;50.828;4.406;2023-11-22T22:23:03;8.60;99.90
28159;DHT22;15447;50.828;4.406;2023-11-22T22:25:28;8.70;99.90
28159;DHT22;15447;50.828;4.406;2023-11-22T22:27:54;8.70;99.90
28159;DHT22;15447;50.828;4.406;2023-11-22T22:30:19;8.70;99.90
28159;DHT22;15447;50.828;4.406;2023-11-22T22:32:45;8.70;99.90
28159;DHT22;15447;50.828;4.406;2023-11-22T22:35:11;8.60;99.90
28159;DHT22;15447;50.828;4.406;2023-11-22T22:37:36;8.60;99.90
28159;DHT22;15447;50.828;4.406;2023-11-22T22:40:03;8.60;99.90
28159;DHT22;15447;50.828;4.406;2023-11-22T22:42:30;8.60;99.90
28159;DHT22;15447;50.828;4.406;2023-11-22T22:44:56;8.70;99.90
28159;DHT22;15447;50.828;4.406;2023-11-22T22:47:22;8.70;99.90
28159;DHT22;15447;50.828;4.406;2023-11-22T22:49:47;8.80;99.90
28159;DHT22;15447;50.828;4.406;2023-11-22T22:52:13;8.80;99.90